HP25SK MPMG-MPVR
Flight info
| Callsign | HP25SK |
|---|---|
| Flight time | N/A |
| Altitude | 4000 |
| Route | DCT VFR |
| Aircraft | K100/L-SBDGRY/S |
Departure
| Time | 2026-04-24 20:38 |
|---|---|
| Airport | Marcos A. Gelabert International Airport (MPMG) |
Arrival
| Time | N/A |
|---|---|
| Airport | MPVR |
| Time | Latitude | Longitude | Altitude | Speed | Heading |
|---|---|---|---|---|---|
| 2026-04-24 20:38 | 9.15816 | -79.48084 | 4000 ft | 172 kts | 45° |
| 2026-04-24 20:38 | 9.16657 | -79.47218 | 4003 ft | 173 kts | 45° |
| 2026-04-24 20:39 | 9.17502 | -79.46351 | 4004 ft | 173 kts | 45° |
| 2026-04-24 20:39 | 9.18340 | -79.45491 | 4116 ft | 166 kts | 45° |
| 2026-04-24 20:39 | 9.19124 | -79.44682 | 4376 ft | 157 kts | 45° |
| 2026-04-24 20:39 | 9.19890 | -79.43887 | 4501 ft | 162 kts | 45° |
| 2026-04-24 20:40 | 9.20692 | -79.43054 | 4504 ft | 168 kts | 45° |
| 2026-04-24 20:40 | 9.21515 | -79.42200 | 4511 ft | 171 kts | 45° |
| 2026-04-24 20:40 | 9.22338 | -79.41351 | 4514 ft | 172 kts | 45° |
| 2026-04-24 20:40 | 9.23179 | -79.40486 | 4515 ft | 172 kts | 45° |
| 2026-04-24 20:41 | 9.24016 | -79.39624 | 4513 ft | 172 kts | 45° |
| 2026-04-24 20:41 | 9.24857 | -79.38758 | 4514 ft | 172 kts | 45° |
| 2026-04-24 20:41 | 9.25696 | -79.37894 | 4514 ft | 172 kts | 45° |
| 2026-04-24 20:41 | 9.26540 | -79.37026 | 4516 ft | 172 kts | 45° |
| 2026-04-24 20:42 | 9.27376 | -79.36167 | 4516 ft | 173 kts | 45° |
| 2026-04-24 20:42 | 9.28219 | -79.35300 | 4515 ft | 173 kts | 45° |
| 2026-04-24 20:42 | 9.29063 | -79.34431 | 4514 ft | 172 kts | 45° |
| 2026-04-24 20:42 | 9.29857 | -79.33523 | 4515 ft | 172 kts | 53° |
| 2026-04-24 20:43 | 9.30566 | -79.32537 | 4521 ft | 174 kts | 54° |
| 2026-04-24 20:43 | 9.31307 | -79.31547 | 4510 ft | 177 kts | 54° |
| 2026-04-24 20:43 | 9.32060 | -79.30548 | 4513 ft | 178 kts | 54° |
| 2026-04-24 20:43 | 9.32802 | -79.29556 | 4514 ft | 180 kts | 54° |
| 2026-04-24 20:44 | 9.33563 | -79.28546 | 4512 ft | 181 kts | 54° |
| 2026-04-24 20:44 | 9.34330 | -79.27530 | 4510 ft | 181 kts | 55° |
| 2026-04-24 20:44 | 9.35082 | -79.26512 | 4508 ft | 180 kts | 54° |
| 2026-04-24 20:44 | 9.35823 | -79.25516 | 4506 ft | 179 kts | 55° |
| 2026-04-24 20:45 | 9.36576 | -79.24509 | 4506 ft | 179 kts | 54° |
| 2026-04-24 20:45 | 9.37329 | -79.23510 | 4502 ft | 177 kts | 53° |
| 2026-04-24 20:45 | 9.38074 | -79.22507 | 4503 ft | 178 kts | 54° |
| 2026-04-24 20:45 | 9.38813 | -79.21510 | 4507 ft | 177 kts | 55° |
| 2026-04-24 20:46 | 9.39557 | -79.20520 | 4503 ft | 178 kts | 54° |
| 2026-04-24 20:46 | 9.40313 | -79.19521 | 4498 ft | 179 kts | 54° |
| 2026-04-24 20:46 | 9.41065 | -79.18518 | 4507 ft | 178 kts | 54° |
| 2026-04-24 20:46 | 9.41820 | -79.17512 | 4502 ft | 178 kts | 54° |
| 2026-04-24 20:47 | 9.42575 | -79.16512 | 4499 ft | 179 kts | 54° |
| 2026-04-24 20:47 | 9.43413 | -79.15608 | 4508 ft | 178 kts | 45° |
| 2026-04-24 20:47 | 9.44304 | -79.14733 | 4508 ft | 178 kts | 45° |
| 2026-04-24 20:47 | 9.45182 | -79.13781 | 4103 ft | 186 kts | 54° |
| 2026-04-24 20:48 | 9.45780 | -79.12747 | 3856 ft | 161 kts | 70° |
| 2026-04-24 20:48 | 9.46034 | -79.11693 | 3627 ft | 150 kts | 93° |
| 2026-04-24 20:48 | 9.45949 | -79.10665 | 3393 ft | 143 kts | 97° |
| 2026-04-24 20:48 | 9.46068 | -79.09637 | 3091 ft | 155 kts | 73° |
| 2026-04-24 20:49 | 9.46529 | -79.08654 | 2826 ft | 154 kts | 60° |
| 2026-04-24 20:49 | 9.47087 | -79.07716 | 2348 ft | 156 kts | 59° |
| 2026-04-24 20:49 | 9.47418 | -79.06669 | 1731 ft | 159 kts | 79° |
| 2026-04-24 20:49 | 9.47599 | -79.05605 | 1404 ft | 146 kts | 77° |
| 2026-04-24 20:50 | 9.47771 | -79.04636 | 1231 ft | 136 kts | 79° |
| 2026-04-24 20:50 | 9.48117 | -79.03755 | 1154 ft | 138 kts | 59° |
| 2026-04-24 20:50 | 9.48623 | -79.02894 | 1074 ft | 148 kts | 63° |
| 2026-04-24 20:50 | 9.49065 | -79.01951 | 1017 ft | 148 kts | 53° |
| 2026-04-24 20:51 | 9.49734 | -79.01158 | 868 ft | 151 kts | 46° |
| 2026-04-24 20:51 | 9.50487 | -79.00354 | 894 ft | 159 kts | 41° |
| 2026-04-24 20:51 | 9.51328 | -78.99581 | 825 ft | 169 kts | 39° |
| 2026-04-24 20:51 | 9.52251 | -78.98836 | 851 ft | 169 kts | 36° |
| 2026-04-24 20:52 | 9.53188 | -78.98117 | 851 ft | 165 kts | 35° |
| 2026-04-24 20:52 | 9.54021 | -78.97437 | 662 ft | 140 kts | 47° |
| 2026-04-24 20:52 | 9.54559 | -78.96687 | 477 ft | 118 kts | 54° |
| 2026-04-24 20:52 | 9.54943 | -78.96099 | 305 ft | 80 kts | 54° |
| 2026-04-24 20:53 | 9.55171 | -78.95740 | 182 ft | 47 kts | 41° |
| 2026-04-24 20:53 | 9.55452 | -78.95488 | 152 ft | 75 kts | 54° |
| 2026-04-24 20:53 | 9.55700 | -78.94983 | 35 ft | 65 kts | 55° |
| 2026-04-24 20:53 | 9.55831 | -78.94816 | 5 ft | 1 kts | 28° |
| 2026-04-24 20:54 | 9.55832 | -78.94816 | 4 ft | 0 kts | 27° |
| 2026-04-24 20:54 | 9.55832 | -78.94815 | 4 ft | 0 kts | 29° |
| 2026-04-24 20:54 | 9.55837 | -78.94810 | 4 ft | 8 kts | 57° |
| 2026-04-24 20:54 | 9.55941 | -78.94641 | 6 ft | 27 kts | 55° |
| 2026-04-24 20:55 | 9.56033 | -78.94510 | 7 ft | 21 kts | 54° |
| 2026-04-24 20:55 | 9.56083 | -78.94443 | 7 ft | 3 kts | 54° |
| 2026-04-24 20:55 | 9.56077 | -78.94439 | 7 ft | 2 kts | 234° |
| 2026-04-24 20:55 | 9.56042 | -78.94497 | 7 ft | 11 kts | 233° |
| 2026-04-24 20:56 | 9.56028 | -78.94515 | 7 ft | 0 kts | 233° |